createdAt,value
2023-01-26T00:00:20.492Z,0.50
2023-01-26T00:05:22.841Z,0.60
2023-01-26T00:10:25.186Z,0.60
2023-01-26T00:15:28.790Z,0.50
2023-01-26T00:20:31.988Z,0.40
2023-01-26T00:25:33.980Z,0.40
2023-01-26T00:30:40.017Z,0.30
2023-01-26T00:35:44.757Z,0.30
2023-01-26T00:40:46.637Z,0.30
2023-01-26T00:45:50.732Z,0.30
2023-01-26T00:50:53.274Z,0.30
2023-01-26T00:55:58.255Z,0.40
2023-01-26T01:01:01.899Z,0.40
2023-01-26T01:06:04.190Z,0.30
2023-01-26T01:11:07.703Z,0.30
2023-01-26T01:16:14.371Z,0.40
2023-01-26T01:21:18.332Z,0.30
2023-01-26T01:26:20.752Z,0.30
2023-01-26T01:31:25.069Z,0.30
2023-01-26T01:36:27.504Z,0.40
2023-01-26T01:41:29.862Z,0.40
2023-01-26T01:46:35.356Z,0.40
2023-01-26T01:51:42.079Z,0.30
2023-01-26T01:56:48.664Z,0.40
2023-01-26T02:01:54.107Z,0.40
2023-01-26T02:07:00.487Z,0.40
2023-01-26T02:12:04.375Z,0.40
2023-01-26T02:17:08.168Z,0.40
2023-01-26T02:22:20.995Z,0.40
2023-01-26T02:27:24.542Z,0.40
2023-01-26T02:32:28.501Z,0.50
2023-01-26T02:37:30.996Z,0.40
2023-01-26T02:42:42.175Z,0.50
2023-01-26T02:47:45.077Z,0.40
2023-01-26T02:52:47.786Z,0.30
2023-01-26T02:57:52.503Z,0.30
2023-01-26T03:02:57.213Z,0.30
2023-01-26T03:07:59.312Z,0.30
2023-01-26T03:13:03.124Z,0.20
2023-01-26T03:18:23.866Z,0.30
2023-01-26T03:23:42.893Z,0.30
2023-01-26T03:28:46.855Z,0.30
2023-01-26T03:33:48.985Z,0.40
2023-01-26T03:38:51.404Z,0.30
2023-01-26T03:44:12.289Z,0.30
2023-01-26T03:49:31.959Z,0.30
2023-01-26T03:54:51.411Z,0.30
2023-01-26T03:59:55.113Z,0.40
2023-01-26T04:05:14.531Z,0.40
2023-01-26T04:10:16.782Z,0.40
2023-01-26T04:15:38.041Z,0.40
2023-01-26T04:20:57.265Z,0.40
2023-01-26T04:25:59.453Z,0.40
2023-01-26T04:31:04.771Z,0.40
2023-01-26T04:36:08.085Z,0.40
2023-01-26T04:41:11.020Z,0.40
2023-01-26T04:46:14.512Z,0.40
2023-01-26T04:51:20.149Z,0.40
2023-01-26T04:56:25.133Z,0.30
2023-01-26T05:01:28.797Z,0.10
2023-01-26T05:06:31.045Z,0.00
2023-01-26T05:11:33.534Z,0.00
2023-01-26T05:16:37.528Z,0.00
2023-01-26T05:21:39.635Z,0.00
2023-01-26T05:26:41.884Z,0.00
2023-01-26T05:31:45.721Z,0.10
2023-01-26T05:36:47.693Z,0.10
2023-01-26T05:41:50.820Z,0.20
2023-01-26T05:46:54.546Z,0.20
2023-01-26T05:51:56.616Z,0.30
2023-01-26T05:56:59.070Z,0.30
2023-01-26T06:02:03.607Z,0.30
2023-01-26T06:07:07.348Z,0.30
2023-01-26T06:12:16.539Z,0.30
2023-01-26T06:17:20.410Z,0.30
2023-01-26T06:22:22.474Z,0.30
2023-01-26T06:27:24.453Z,0.30
2023-01-26T06:32:28.347Z,0.30
2023-01-26T06:37:30.509Z,0.30
2023-01-26T06:42:32.949Z,0.40
2023-01-26T06:47:36.968Z,0.30
2023-01-26T06:52:42.616Z,0.30
2023-01-26T06:57:44.421Z,0.20
2023-01-26T07:02:48.226Z,0.20
2023-01-26T07:07:50.319Z,0.20
2023-01-26T07:12:52.177Z,0.30
2023-01-26T07:17:55.858Z,0.30
2023-01-26T07:22:57.769Z,0.20
2023-01-26T07:28:01.080Z,0.20
2023-01-26T07:33:05.082Z,0.20
2023-01-26T07:38:07.637Z,0.10
2023-01-26T07:43:09.967Z,0.10
2023-01-26T07:48:14.692Z,0.20
2023-01-26T07:53:19.511Z,0.20
2023-01-26T07:58:21.766Z,0.20
2023-01-26T08:03:27.446Z,0.30
2023-01-26T08:08:30.105Z,0.30
2023-01-26T08:13:35.753Z,0.30
2023-01-26T08:18:40.304Z,0.20
2023-01-26T08:23:42.836Z,0.30
2023-01-26T08:28:45.675Z,0.40
2023-01-26T08:33:50.972Z,0.40
2023-01-26T08:38:53.821Z,0.50
2023-01-26T08:43:59.398Z,0.50
2023-01-26T08:49:03.099Z,0.60
2023-01-26T08:54:08.394Z,0.60
2023-01-26T08:59:10.613Z,0.70
2023-01-26T09:04:14.539Z,0.70
2023-01-26T09:09:16.761Z,0.80
2023-01-26T09:14:18.996Z,0.80
2023-01-26T09:19:23.166Z,0.90
2023-01-26T09:24:26.306Z,0.90
2023-01-26T09:29:28.411Z,0.90
2023-01-26T09:34:32.205Z,0.90
2023-01-26T09:39:34.155Z,0.90
2023-01-26T09:44:46.278Z,0.80
2023-01-26T09:49:57.191Z,0.70
2023-01-26T09:55:02.543Z,0.60
2023-01-26T10:00:09.871Z,0.70
2023-01-26T10:05:19.805Z,0.80
2023-01-26T10:10:28.460Z,0.90
2023-01-26T10:15:33.325Z,0.90
2023-01-26T10:20:40.383Z,1.00
2023-01-26T10:25:44.539Z,1.10
2023-01-26T10:30:48.748Z,1.10
2023-01-26T10:35:53.000Z,1.20
2023-01-26T10:40:55.412Z,1.20
2023-01-26T10:45:57.931Z,1.30
2023-01-26T10:51:17.833Z,1.30
2023-01-26T10:56:20.549Z,1.40
2023-01-26T11:01:27.722Z,1.30
2023-01-26T11:06:32.261Z,1.40
2023-01-26T11:11:34.607Z,1.40
2023-01-26T11:16:37.511Z,1.40
2023-01-26T11:21:46.240Z,1.40
2023-01-26T11:27:26.767Z,1.40
2023-01-26T11:32:36.553Z,1.40
2023-01-26T11:37:46.186Z,1.40
2023-01-26T11:42:57.811Z,1.40
2023-01-26T11:48:16.133Z,1.40
2023-01-26T11:53:38.381Z,1.40
2023-01-26T11:58:46.584Z,1.40
2023-01-26T12:03:51.162Z,1.40
2023-01-26T12:08:59.321Z,1.50
2023-01-26T12:14:09.553Z,1.40
2023-01-26T12:19:19.272Z,1.40
2023-01-26T12:25:04.812Z,1.40
2023-01-26T12:30:05.600Z,1.30
2023-01-26T12:35:13.264Z,1.40
2023-01-26T12:40:32.642Z,1.30
2023-01-26T12:45:38.855Z,1.20
2023-01-26T12:50:47.210Z,1.30
2023-01-26T12:55:55.631Z,1.30
2023-01-26T13:01:02.783Z,1.30
2023-01-26T13:06:20.568Z,1.30
2023-01-26T13:11:46.581Z,1.40
2023-01-26T13:16:48.909Z,1.30
2023-01-26T13:21:51.281Z,1.20
2023-01-26T13:26:57.064Z,1.10
2023-01-26T13:32:01.226Z,1.10
2023-01-26T13:37:11.072Z,1.20
2023-01-26T13:42:24.080Z,1.10
2023-01-26T13:47:32.218Z,1.20
2023-01-26T13:52:34.455Z,1.20
2023-01-26T13:57:38.221Z,1.30
2023-01-26T14:02:40.881Z,1.30
2023-01-26T14:07:45.537Z,1.40
2023-01-26T14:12:53.092Z,1.40
2023-01-26T14:18:00.049Z,2.70
2023-01-26T14:23:15.062Z,4.20
2023-01-26T14:28:22.262Z,4.70
2023-01-26T14:33:26.285Z,3.50
2023-01-26T14:38:30.370Z,2.50
2023-01-26T14:43:35.698Z,1.90
2023-01-26T14:48:44.581Z,1.60
2023-01-26T14:53:51.807Z,1.40
2023-01-26T14:58:56.740Z,1.30
2023-01-26T15:04:02.597Z,1.20
2023-01-26T15:09:06.887Z,1.10
2023-01-26T15:14:31.794Z,1.00
2023-01-26T15:19:44.343Z,0.90
2023-01-26T15:24:48.462Z,0.90
2023-01-26T15:30:00.117Z,0.90
2023-01-26T15:35:24.472Z,0.80
2023-01-26T15:40:26.575Z,0.90
2023-01-26T15:45:33.871Z,0.80
2023-01-26T15:50:36.625Z,0.80
2023-01-26T15:55:39.307Z,0.80
2023-01-26T16:00:42.899Z,0.70
2023-01-26T16:05:47.932Z,0.70
2023-01-26T16:10:50.121Z,0.60
2023-01-26T16:15:54.761Z,0.60
2023-01-26T16:20:57.756Z,0.60
2023-01-26T16:25:59.865Z,0.50
2023-01-26T16:31:04.115Z,0.50
2023-01-26T16:36:06.890Z,0.50
2023-01-26T16:41:14.697Z,0.50
2023-01-26T16:46:18.388Z,0.50
2023-01-26T16:51:24.239Z,0.50
2023-01-26T16:56:28.889Z,0.50
2023-01-26T17:01:36.628Z,0.50
2023-01-26T17:06:39.955Z,0.40
2023-01-26T17:11:42.620Z,0.40
2023-01-26T17:16:46.755Z,0.40
2023-01-26T17:21:49.571Z,0.40
2023-01-26T17:26:52.325Z,0.40
2023-01-26T17:31:56.492Z,0.40
2023-01-26T17:37:00.620Z,0.40
2023-01-26T17:42:03.518Z,0.40
2023-01-26T17:47:09.564Z,0.40
2023-01-26T17:52:14.807Z,0.40
2023-01-26T17:57:17.045Z,0.30
2023-01-26T18:02:21.764Z,0.30
2023-01-26T18:07:25.937Z,0.30
2023-01-26T18:12:30.103Z,0.30
2023-01-26T18:17:36.965Z,0.30
2023-01-26T18:22:39.957Z,0.30
2023-01-26T18:27:43.622Z,0.30
2023-01-26T18:32:49.304Z,0.30
2023-01-26T18:37:52.503Z,0.20
2023-01-26T18:43:00.259Z,0.20
2023-01-26T18:48:04.769Z,0.20
2023-01-26T18:53:09.761Z,0.20
2023-01-26T18:58:18.232Z,0.20
2023-01-26T19:03:24.771Z,0.20
2023-01-26T19:08:28.312Z,0.10
2023-01-26T19:13:35.373Z,0.20
2023-01-26T19:18:56.939Z,0.20
2023-01-26T19:24:45.589Z,0.20
2023-01-26T19:29:48.983Z,0.20
2023-01-26T19:34:57.623Z,0.20
2023-01-26T19:40:01.252Z,0.20
2023-01-26T19:45:09.919Z,0.20
2023-01-26T19:50:15.424Z,0.20
2023-01-26T19:55:19.421Z,0.10
2023-01-26T20:00:24.071Z,0.10
2023-01-26T20:05:29.706Z,0.10
2023-01-26T20:10:35.040Z,0.10
2023-01-26T20:16:10.447Z,0.10
2023-01-26T20:21:15.407Z,0.10
2023-01-26T20:26:19.147Z,0.20
2023-01-26T20:31:25.625Z,0.10
2023-01-26T20:36:31.778Z,0.10
2023-01-26T20:41:36.768Z,0.10
2023-01-26T20:46:43.016Z,0.10
2023-01-26T20:51:49.581Z,0.10
2023-01-26T20:56:55.590Z,0.10
2023-01-26T21:02:09.489Z,0.00
2023-01-26T21:07:45.094Z,0.10
2023-01-26T21:12:48.325Z,0.10
2023-01-26T21:17:51.439Z,0.00
2023-01-26T21:22:59.897Z,0.00
2023-01-26T21:28:03.946Z,0.00
2023-01-26T21:33:06.503Z,0.00
2023-01-26T21:38:10.447Z,0.10
2023-01-26T21:43:13.179Z,0.10
2023-01-26T21:48:38.896Z,0.10
2023-01-26T21:54:01.698Z,0.20
2023-01-26T21:59:31.046Z,0.20
2023-01-26T22:04:34.954Z,0.10
2023-01-26T22:09:39.531Z,0.10
2023-01-26T22:14:43.033Z,0.10
2023-01-26T22:19:45.670Z,0.10
2023-01-26T22:24:51.152Z,0.00
2023-01-26T22:29:53.249Z,0.00
2023-01-26T22:34:56.533Z,0.00
2023-01-26T22:40:01.062Z,0.00
2023-01-26T22:45:03.973Z,0.00
2023-01-26T22:50:06.850Z,0.00
2023-01-26T22:55:11.685Z,0.00
2023-01-26T23:00:15.046Z,0.00
2023-01-26T23:05:17.358Z,0.00
2023-01-26T23:10:21.329Z,0.00
2023-01-26T23:15:24.546Z,0.10
2023-01-26T23:20:26.740Z,0.10
2023-01-26T23:25:47.760Z,0.20
2023-01-26T23:30:50.562Z,0.20
2023-01-26T23:35:52.616Z,0.20
2023-01-26T23:40:56.810Z,0.10
2023-01-26T23:45:59.719Z,0.20
2023-01-26T23:51:04.467Z,0.20
2023-01-26T23:56:11.998Z,0.20
